Wetterdaten: Mittwoch, 27.04.2016
Datum Zeit Auen-Temp. Temp gefhlt Luftfeuchte Luftdruck Regen Wind Richtung Richtung Sonnenschein Taupunkt Windben
27.04.2016 00:00 -0,5 C -0,8 C 85 % 1003,9 hPa 0,0 mm 6,3 km/h (2 Bft) W 270 0 min -2,7 C 5,1 km/h (1 Bft)
27.04.2016 00:05 -0,5 C -0,6 C 85 % 1003,9 hPa 0,0 mm 4,8 km/h (1 Bft) W 270 0 min -2,7 C 3,9 km/h (1 Bft)
27.04.2016 00:10 -0,5 C -0,6 C 85 % 1003,9 hPa 0,0 mm 1,5 km/h (1 Bft) W 270 0 min -2,7 C 0,0 km/h (0 Bft)
27.04.2016 00:15 -0,5 C -0,6 C 85 % 1004,2 hPa 0,0 mm 1,2 km/h (1 Bft) W 270 0 min -2,7 C 8,0 km/h (2 Bft)
27.04.2016 00:20 -0,5 C -0,6 C 85 % 1004,2 hPa 0,0 mm 2,4 km/h (1 Bft) W 270 0 min -2,7 C 5,1 km/h (1 Bft)
27.04.2016 00:25 -0,5 C -0,6 C 85 % 1004,2 hPa 0,0 mm 2,4 km/h (1 Bft) W 270 0 min -2,7 C 11,0 km/h (2 Bft)
27.04.2016 00:30 -0,5 C -0,6 C 85 % 1004,2 hPa 0,0 mm 1,5 km/h (1 Bft) W 270 0 min -2,7 C 0,0 km/h (0 Bft)
27.04.2016 00:35 -0,6 C -0,7 C 85 % 1004,5 hPa 0,0 mm 0,0 km/h (0 Bft) W 270 0 min -2,8 C 0,0 km/h (0 Bft)
27.04.2016 00:40 -0,6 C -0,7 C 85 % 1004,5 hPa 0,0 mm 0,0 km/h (0 Bft) W 270 0 min -2,8 C 0,0 km/h (0 Bft)
27.04.2016 00:45 -0,6 C -0,7 C 85 % 1004,5 hPa 0,0 mm 0,0 km/h (0 Bft) W 270 0 min -2,8 C 0,0 km/h (0 Bft)
27.04.2016 00:50 -0,6 C -0,7 C 85 % 1004,5 hPa 0,0 mm 0,0 km/h (0 Bft) W 270 0 min -2,8 C 0,0 km/h (0 Bft)
27.04.2016 00:55 -0,6 C -0,7 C 85 % 1004,8 hPa 0,0 mm 0,0 km/h (0 Bft) W 270 0 min -2,8 C 0,0 km/h (0 Bft)
27.04.2016 01:00 -0,6 C -0,7 C 85 % 1004,8 hPa 0,0 mm 0,0 km/h (0 Bft) W 270 0 min -2,8 C 0,0 km/h (0 Bft)
27.04.2016 01:05 -0,7 C -0,8 C 85 % 1004,8 hPa 0,0 mm 0,0 km/h (0 Bft) W 270 0 min -2,9 C 0,0 km/h (0 Bft)
27.04.2016 01:10 -0,7 C -0,8 C 85 % 1004,8 hPa 0,0 mm 0,0 km/h (0 Bft) W 270 0 min -2,9 C 0,0 km/h (0 Bft)
27.04.2016 01:15 -0,7 C -0,8 C 85 % 1004,9 hPa 0,0 mm 0,0 km/h (0 Bft) W 270 0 min -2,9 C 0,0 km/h (0 Bft)
27.04.2016 01:20 -0,7 C -0,8 C 86 % 1004,9 hPa 0,0 mm 0,0 km/h (0 Bft) W 270 0 min -2,7 C 0,0 km/h (0 Bft)
27.04.2016 01:25 -0,7 C -0,8 C 86 % 1004,9 hPa 0,0 mm 0,0 km/h (0 Bft) W 270 0 min -2,7 C 0,0 km/h (0 Bft)
27.04.2016 01:30 -0,7 C -0,8 C 86 % 1004,9 hPa 0,0 mm 0,0 km/h (0 Bft) W 270 0 min -2,7 C 0,0 km/h (0 Bft)
27.04.2016 01:35 -0,7 C -0,9 C 86 % 1005,3 hPa 0,0 mm 0,0 km/h (0 Bft) W 270 0 min -2,7 C 0,0 km/h (0 Bft)
27.04.2016 01:40 -0,7 C -0,9 C 86 % 1005,3 hPa 0,0 mm 0,0 km/h (0 Bft) W 270 0 min -2,7 C 0,0 km/h (0 Bft)
27.04.2016 01:45 -0,9 C -0,9 C 86 % 1005,3 hPa 0,0 mm 0,0 km/h (0 Bft) W 270 0 min -2,9 C 0,0 km/h (0 Bft)
27.04.2016 01:50 -0,9 C -0,9 C 86 % 1005,3 hPa 0,0 mm 0,0 km/h (0 Bft) W 270 0 min -2,9 C 0,0 km/h (0 Bft)
27.04.2016 01:55 -0,9 C -0,9 C 86 % 1005,4 hPa 0,0 mm 0,0 km/h (0 Bft) W 270 0 min -2,9 C 0,0 km/h (0 Bft)
27.04.2016 02:00 -0,9 C -0,9 C 86 % 1005,4 hPa 0,0 mm 0,0 km/h (0 Bft) W 270 0 min -2,9 C 0,0 km/h (0 Bft)
27.04.2016 02:02 -0,9 C -0,9 C 86 % 1005,4 hPa 0,0 mm 0,0 km/h (0 Bft) W 270 0 min -2,9 C 0,0 km/h (0 Bft)
27.04.2016 02:05 -0,9 C -0,9 C 86 % 1005,4 hPa 0,0 mm 0,0 km/h (0 Bft) W 270 0 min -2,9 C 0,0 km/h (0 Bft)
27.04.2016 02:10 -0,7 C -0,8 C 86 % 1005,4 hPa 0,0 mm 0,0 km/h (0 Bft) W 270 0 min -2,7 C 0,0 km/h (0 Bft)
27.04.2016 02:15 -0,7 C -0,8 C 86 % 1005,2 hPa 0,0 mm 0,0 km/h (0 Bft) W 270 0 min -2,7 C 0,0 km/h (0 Bft)
27.04.2016 02:20 -0,7 C -0,8 C 86 % 1005,2 hPa 0,0 mm 0,0 km/h (0 Bft) W 270 0 min -2,7 C 0,0 km/h (0 Bft)
27.04.2016 02:25 -0,7 C -0,8 C 86 % 1005,2 hPa 0,0 mm 0,0 km/h (0 Bft) W 270 0 min -2,7 C 0,0 km/h (0 Bft)
27.04.2016 02:30 -0,7 C -0,8 C 86 % 1005,2 hPa 0,0 mm 0,0 km/h (0 Bft) W 270 0 min -2,7 C 0,0 km/h (0 Bft)
27.04.2016 02:35 -0,7 C -0,8 C 86 % 1005,1 hPa 0,0 mm 0,0 km/h (0 Bft) W 270 0 min -2,7 C 0,0 km/h (0 Bft)
27.04.2016 02:40 -0,7 C -0,8 C 86 % 1005,1 hPa 0,0 mm 0,0 km/h (0 Bft) W 270 0 min -2,7 C 0,0 km/h (0 Bft)
27.04.2016 02:45 -0,7 C -0,8 C 86 % 1005,1 hPa 0,0 mm 0,0 km/h (0 Bft) W 270 0 min -2,7 C 0,0 km/h (0 Bft)
27.04.2016 02:50 -0,7 C -0,7 C 86 % 1005,1 hPa 0,0 mm 0,0 km/h (0 Bft) W 270 0 min -2,7 C 0,0 km/h (0 Bft)
27.04.2016 02:55 -0,6 C -0,7 C 86 % 1005,2 hPa 0,0 mm 0,0 km/h (0 Bft) W 270 0 min -2,6 C 0,0 km/h (0 Bft)
27.04.2016 03:00 -0,6 C -0,7 C 86 % 1005,2 hPa 0,0 mm 0,0 km/h (0 Bft) W 270 0 min -2,6 C 0,0 km/h (0 Bft)
27.04.2016 03:05 -0,6 C -0,6 C 86 % 1005,2 hPa 0,0 mm 0,0 km/h (0 Bft) W 270 0 min -2,6 C 0,0 km/h (0 Bft)
27.04.2016 03:10 -0,5 C -0,5 C 86 % 1005,2 hPa 0,0 mm 0,0 km/h (0 Bft) W 270 0 min -2,5 C 0,0 km/h (0 Bft)
27.04.2016 03:15 -0,5 C -0,6 C 86 % 1005,2 hPa 0,0 mm 0,0 km/h (0 Bft) W 270 0 min -2,5 C 0,0 km/h (0 Bft)
27.04.2016 03:20 -0,4 C -0,6 C 90 % 1005,2 hPa 0,0 mm 0,0 km/h (0 Bft) W 270 0 min -1,8 C 0,0 km/h (0 Bft)
27.04.2016 03:25 -0,3 C -0,5 C 90 % 1005,2 hPa 0,0 mm 0,0 km/h (0 Bft) W 270 0 min -1,7 C 0,0 km/h (0 Bft)
27.04.2016 03:30 -0,3 C -0,5 C 90 % 1005,2 hPa 0,0 mm 0,0 km/h (0 Bft) W 270 0 min -1,7 C 0,0 km/h (0 Bft)
27.04.2016 03:35 -0,3 C -0,5 C 90 % 1005,4 hPa 0,0 mm 0,0 km/h (0 Bft) W 270 0 min -1,7 C 0,0 km/h (0 Bft)
27.04.2016 03:40 -0,4 C -0,6 C 90 % 1005,4 hPa 0,0 mm 0,0 km/h (0 Bft) W 270 0 min -1,8 C 0,0 km/h (0 Bft)
27.04.2016 03:45 -0,3 C -0,5 C 90 % 1005,4 hPa 0,0 mm 0,0 km/h (0 Bft) W 270 0 min -1,7 C 0,0 km/h (0 Bft)
27.04.2016 03:50 -0,3 C -0,4 C 86 % 1005,4 hPa 0,0 mm 0,0 km/h (0 Bft) W 270 0 min -2,3 C 0,0 km/h (0 Bft)
27.04.2016 03:55 -0,3 C -0,4 C 86 % 1005,3 hPa 0,0 mm 0,0 km/h (0 Bft) W 270 0 min -2,3 C 0,0 km/h (0 Bft)
27.04.2016 04:00 -0,3 C -0,5 C 90 % 1005,3 hPa 0,0 mm 0,0 km/h (0 Bft) W 270 0 min -1,7 C 0,0 km/h (0 Bft)
27.04.2016 04:05 -0,3 C -0,5 C 90 % 1005,3 hPa 0,0 mm 0,0 km/h (0 Bft) W 270 0 min -1,7 C 0,0 km/h (0 Bft)
27.04.2016 04:10 -0,5 C -0,5 C 86 % 1005,3 hPa 0,0 mm 0,0 km/h (0 Bft) W 270 0 min -2,5 C 0,0 km/h (0 Bft)
27.04.2016 04:15 -0,5 C -0,6 C 86 % 1005,7 hPa 0,0 mm 0,0 km/h (0 Bft) W 270 0 min -2,5 C 0,0 km/h (0 Bft)
27.04.2016 04:20 -0,5 C -0,6 C 86 % 1005,7 hPa 0,0 mm 0,0 km/h (0 Bft) W 270 0 min -2,5 C 0,0 km/h (0 Bft)
27.04.2016 04:25 -0,5 C -0,6 C 86 % 1005,7 hPa 0,0 mm 0,0 km/h (0 Bft) W 270 0 min -2,5 C 0,0 km/h (0 Bft)
27.04.2016 04:30 -0,5 C -0,6 C 86 % 1005,7 hPa 0,0 mm 0,0 km/h (0 Bft) W 270 0 min -2,5 C 0,0 km/h (0 Bft)
27.04.2016 04:35 -0,5 C -0,6 C 86 % 1005,9 hPa 0,0 mm 0,0 km/h (0 Bft) W 270 0 min -2,5 C 0,0 km/h (0 Bft)
27.04.2016 04:40 -0,6 C -0,7 C 86 % 1005,9 hPa 0,0 mm 0,0 km/h (0 Bft) W 270 0 min -2,6 C 0,0 km/h (0 Bft)
27.04.2016 04:45 -0,6 C -0,7 C 86 % 1005,9 hPa 0,0 mm 0,0 km/h (0 Bft) W 270 0 min -2,6 C 0,0 km/h (0 Bft)
27.04.2016 04:50 -0,6 C -0,7 C 86 % 1005,9 hPa 0,0 mm 0,0 km/h (0 Bft) W 270 0 min -2,6 C 0,0 km/h (0 Bft)
27.04.2016 04:55 -0,6 C -0,7 C 86 % 1006,1 hPa 0,0 mm 0,0 km/h (0 Bft) W 270 0 min -2,6 C 0,0 km/h (0 Bft)
27.04.2016 05:00 -0,6 C -0,7 C 86 % 1006,1 hPa 0,0 mm 0,0 km/h (0 Bft) W 270 0 min -2,6 C 0,0 km/h (0 Bft)
27.04.2016 05:03 -0,6 C -0,8 C 89 % 1006,1 hPa 0,0 mm 0,0 km/h (0 Bft) W 270 0 min -2,2 C 0,0 km/h (0 Bft)
27.04.2016 05:05 -0,6 C -0,8 C 89 % 1006,1 hPa 0,0 mm 0,0 km/h (0 Bft) W 270 0 min -2,2 C 0,0 km/h (0 Bft)
27.04.2016 05:10 -0,7 C -0,8 C 86 % 1006,1 hPa 0,0 mm 0,0 km/h (0 Bft) W 270 0 min -2,7 C 0,0 km/h (0 Bft)
27.04.2016 05:15 -0,7 C -0,9 C 86 % 1006,2 hPa 0,0 mm 0,0 km/h (0 Bft) W 270 0 min -2,7 C 0,0 km/h (0 Bft)
27.04.2016 05:20 -0,7 C -0,9 C 89 % 1006,2 hPa 0,0 mm 0,9 km/h (0 Bft) W 270 0 min -2,3 C 0,0 km/h (0 Bft)
27.04.2016 05:25 -0,9 C -1,0 C 86 % 1006,2 hPa 0,0 mm 2,4 km/h (1 Bft) W 270 0 min -2,9 C 6,0 km/h (2 Bft)
27.04.2016 05:30 -0,9 C -1,0 C 86 % 1006,2 hPa 0,0 mm 2,4 km/h (1 Bft) W 270 0 min -2,9 C 4,8 km/h (1 Bft)
27.04.2016 05:35 -0,9 C -1,1 C 86 % 1006,4 hPa 0,0 mm 3,0 km/h (1 Bft) W 270 0 min -2,9 C 6,3 km/h (2 Bft)
27.04.2016 05:40 -1,0 C -1,1 C 86 % 1006,4 hPa 0,0 mm 3,6 km/h (1 Bft) W 270 0 min -3,0 C 13,7 km/h (3 Bft)
27.04.2016 05:45 -1,0 C -1,2 C 89 % 1006,4 hPa 0,0 mm 3,6 km/h (1 Bft) W 270 0 min -2,6 C 6,3 km/h (2 Bft)
27.04.2016 05:50 -1,1 C -1,2 C 86 % 1006,4 hPa 0,0 mm 3,6 km/h (1 Bft) W 270 0 min -3,1 C 5,4 km/h (1 Bft)
27.04.2016 05:55 -1,1 C -1,3 C 86 % 1006,9 hPa 0,0 mm 2,7 km/h (1 Bft) W 270 0 min -3,1 C 0,0 km/h (0 Bft)
27.04.2016 06:00 -1,1 C -1,3 C 86 % 1006,9 hPa 0,0 mm 2,1 km/h (1 Bft) W 270 0 min -3,1 C 5,7 km/h (1 Bft)
27.04.2016 06:05 -1,1 C -1,3 C 86 % 1006,9 hPa 0,0 mm 2,4 km/h (1 Bft) W 270 0 min -3,1 C 6,9 km/h (2 Bft)
27.04.2016 06:10 -1,1 C -1,3 C 89 % 1006,9 hPa 0,0 mm 3,0 km/h (1 Bft) W 270 0 min -2,7 C 0,0 km/h (0 Bft)
27.04.2016 06:15 -1,2 C -1,3 C 86 % 1007,1 hPa 0,0 mm 1,8 km/h (1 Bft) W 270 0 min -3,2 C 0,0 km/h (0 Bft)
27.04.2016 06:20 -1,2 C -1,3 C 86 % 1007,1 hPa 0,0 mm 2,4 km/h (1 Bft) W 270 0 min -3,2 C 0,0 km/h (0 Bft)
27.04.2016 06:25 -1,2 C -1,3 C 86 % 1007,1 hPa 0,0 mm 3,6 km/h (1 Bft) W 270 0 min -3,2 C 8,9 km/h (2 Bft)
27.04.2016 06:30 -1,2 C -1,3 C 86 % 1007,1 hPa 0,0 mm 3,0 km/h (1 Bft) W 270 0 min -3,2 C 13,4 km/h (3 Bft)
27.04.2016 06:35 -1,2 C -1,3 C 86 % 1007,1 hPa 0,0 mm 3,9 km/h (1 Bft) W 270 0 min -3,2 C 6,9 km/h (2 Bft)
27.04.2016 06:40 -1,2 C -1,3 C 86 % 1007,1 hPa 0,0 mm 3,9 km/h (1 Bft) W 270 0 min -3,2 C 8,9 km/h (2 Bft)
27.04.2016 06:45 -1,3 C -1,3 C 86 % 1007,1 hPa 0,0 mm 3,3 km/h (1 Bft) W 270 0 min -3,3 C 17,6 km/h (3 Bft)
27.04.2016 06:50 -1,3 C -1,3 C 86 % 1007,1 hPa 0,0 mm 2,7 km/h (1 Bft) W 270 0 min -3,3 C 3,6 km/h (1 Bft)
27.04.2016 06:55 -1,3 C -1,3 C 86 % 1007,4 hPa 0,0 mm 1,8 km/h (1 Bft) W 270 0 min -3,3 C 0,0 km/h (0 Bft)
27.04.2016 07:00 -1,3 C -1,2 C 86 % 1007,4 hPa 0,0 mm 2,1 km/h (1 Bft) W 270 0 min -3,3 C 5,4 km/h (1 Bft)
27.04.2016 07:05 -1,3 C -1,2 C 86 % 1007,4 hPa 0,0 mm 3,3 km/h (1 Bft) W 270 0 min -3,3 C 7,7 km/h (2 Bft)
27.04.2016 07:10 -1,2 C -1,1 C 86 % 1007,4 hPa 0,0 mm 3,3 km/h (1 Bft) W 270 0 min -3,2 C 3,0 km/h (1 Bft)
27.04.2016 07:15 -1,2 C -1,0 C 85 % 1007,6 hPa 0,0 mm 2,7 km/h (1 Bft) W 270 0 min -3,4 C 7,7 km/h (2 Bft)
27.04.2016 07:20 -1,2 C -1,0 C 85 % 1007,6 hPa 0,0 mm 3,0 km/h (1 Bft) W 270 0 min -3,4 C 4,8 km/h (1 Bft)
27.04.2016 07:25 -1,2 C -0,9 C 85 % 1007,6 hPa 0,0 mm 3,3 km/h (1 Bft) W 270 0 min -3,4 C 7,2 km/h (2 Bft)
27.04.2016 07:30 -1,1 C -0,8 C 85 % 1007,6 hPa 0,0 mm 3,0 km/h (1 Bft) W 270 0 min -3,3 C 7,5 km/h (2 Bft)
27.04.2016 07:35 -1,1 C -0,7 C 85 % 1007,8 hPa 0,0 mm 2,1 km/h (1 Bft) W 270 0 min -3,3 C 6,3 km/h (2 Bft)
27.04.2016 07:40 -1,1 C -0,7 C 85 % 1007,8 hPa 0,0 mm 1,8 km/h (1 Bft) W 270 0 min -3,3 C 6,3 km/h (2 Bft)
27.04.2016 07:45 -1,1 C -0,6 C 85 % 1007,8 hPa 0,0 mm 3,0 km/h (1 Bft) W 270 0 min -3,3 C 5,4 km/h (1 Bft)
27.04.2016 07:50 -1,0 C -0,4 C 85 % 1007,8 hPa 0,0 mm 3,0 km/h (1 Bft) W 270 0 min -3,2 C 0,0 km/h (0 Bft)
27.04.2016 07:55 -0,9 C -0,2 C 85 % 1008,0 hPa 0,0 mm 3,0 km/h (1 Bft) W 270 0 min -3,1 C 0,0 km/h (0 Bft)
27.04.2016 08:00 -0,9 C -0,1 C 85 % 1008,0 hPa 0,0 mm 3,3 km/h (1 Bft) W 270 0 min -3,1 C 0,0 km/h (0 Bft)
27.04.2016 08:03 -0,9 C -0,1 C 85 % 1008,0 hPa 0,0 mm 3,9 km/h (1 Bft) W 270 0 min -3,1 C 8,3 km/h (2 Bft)
27.04.2016 08:04 -0,9 C -0,1 C 85 % 1008,0 hPa 0,0 mm 3,9 km/h (1 Bft) W 270 0 min -3,1 C 8,3 km/h (2 Bft)
27.04.2016 08:05 -0,9 C -0,1 C 85 % 1008,0 hPa 0,0 mm 3,9 km/h (1 Bft) W 270 0 min -3,1 C 8,3 km/h (2 Bft)
27.04.2016 08:10 -0,9 C -0,1 C 85 % 1008,0 hPa 0,0 mm 4,2 km/h (1 Bft) W 270 0 min -3,1 C 12,2 km/h (2 Bft)
27.04.2016 08:15 -0,9 C -0,1 C 85 % 1008,1 hPa 0,0 mm 6,0 km/h (2 Bft) W 270 0 min -3,1 C 18,5 km/h (3 Bft)
27.04.2016 08:20 -0,9 C 0,1 C 85 % 1008,1 hPa 0,0 mm 6,3 km/h (2 Bft) W 270 0 min -3,1 C 7,2 km/h (2 Bft)
27.04.2016 08:25 -0,7 C 0,6 C 85 % 1008,1 hPa 0,0 mm 4,8 km/h (1 Bft) W 270 0 min -2,9 C 24,7 km/h (4 Bft)
27.04.2016 08:30 -0,7 C 0,7 C 85 % 1008,1 hPa 0,0 mm 3,9 km/h (1 Bft) W 270 0 min -2,9 C 0,0 km/h (0 Bft)
27.04.2016 08:35 -0,5 C 0,7 C 85 % 1008,3 hPa 0,0 mm 3,3 km/h (1 Bft) W 270 0 min -2,7 C 11,3 km/h (2 Bft)
27.04.2016 08:40 -0,6 C 0,3 C 85 % 1008,3 hPa 0,0 mm 3,6 km/h (1 Bft) W 270 0 min -2,8 C 0,0 km/h (0 Bft)
27.04.2016 08:45 -0,9 C 0,0 C 85 % 1008,3 hPa 0,0 mm 4,2 km/h (1 Bft) W 270 0 min -3,1 C 5,1 km/h (1 Bft)
27.04.2016 08:50 -0,9 C -0,1 C 85 % 1008,3 hPa 0,0 mm 3,3 km/h (1 Bft) W 270 0 min -3,1 C 6,0 km/h (2 Bft)
27.04.2016 08:55 -1,0 C -0,4 C 85 % 1008,6 hPa 0,0 mm 3,9 km/h (1 Bft) W 270 0 min -3,2 C 7,7 km/h (2 Bft)
27.04.2016 09:00 -1,0 C -0,4 C 85 % 1008,6 hPa 0,0 mm 5,1 km/h (1 Bft) W 270 0 min -3,2 C 19,1 km/h (3 Bft)
27.04.2016 09:05 -1,0 C -0,2 C 85 % 1008,6 hPa 0,0 mm 5,7 km/h (1 Bft) W 270 0 min -3,2 C 3,6 km/h (1 Bft)
27.04.2016 09:10 -1,0 C -0,3 C 85 % 1008,6 hPa 0,0 mm 6,0 km/h (2 Bft) W 270 0 min -3,2 C 8,9 km/h (2 Bft)
27.04.2016 09:15 -0,7 C 0,6 C 85 % 1008,5 hPa 0,0 mm 5,1 km/h (1 Bft) W 270 0 min -2,9 C 6,3 km/h (2 Bft)
27.04.2016 09:20 -0,9 C 0,5 C 85 % 1008,5 hPa 0,0 mm 5,1 km/h (1 Bft) W 270 0 min -3,1 C 5,1 km/h (1 Bft)
27.04.2016 09:25 -0,6 C 1,0 C 85 % 1008,5 hPa 0,0 mm 3,9 km/h (1 Bft) W 270 0 min -2,8 C 3,9 km/h (1 Bft)
27.04.2016 09:30 -0,5 C 0,9 C 85 % 1008,5 hPa 0,0 mm 2,7 km/h (1 Bft) W 270 0 min -2,7 C 8,3 km/h (2 Bft)
27.04.2016 09:35 -0,6 C 0,5 C 84 % 1008,7 hPa 0,0 mm 3,3 km/h (1 Bft) W 270 0 min -3,0 C 3,3 km/h (1 Bft)
27.04.2016 09:40 -0,1 C 2,4 C 84 % 1008,7 hPa 0,0 mm 5,1 km/h (1 Bft) W 270 0 min -2,5 C 3,0 km/h (1 Bft)
27.04.2016 09:45 0,2 C 2,3 C 84 % 1008,7 hPa 0,0 mm 5,7 km/h (1 Bft) SW 225 0 min -2,2 C 18,8 km/h (3 Bft)
27.04.2016 09:50 -0,2 C 1,2 C 84 % 1008,7 hPa 0,0 mm 6,0 km/h (2 Bft) S 180 0 min -2,6 C 12,5 km/h (3 Bft)
27.04.2016 09:55 -0,3 C 0,9 C 84 % 1008,8 hPa 0,0 mm 7,2 km/h (2 Bft) W-SW 247 0 min -2,7 C 9,5 km/h (2 Bft)
27.04.2016 10:00 -0,2 C 1,4 C 84 % 1008,8 hPa 0,0 mm 5,4 km/h (1 Bft) SW 225 0 min -2,6 C 14,6 km/h (3 Bft)
27.04.2016 10:05 -0,1 C 2,0 C 83 % 1008,8 hPa 0,0 mm 7,2 km/h (2 Bft) NW 315 0 min -2,6 C 5,7 km/h (1 Bft)
27.04.2016 10:10 0,7 C 4,4 C 83 % 1008,8 hPa 0,0 mm 8,3 km/h (2 Bft) SW 225 0 min -1,8 C 19,1 km/h (3 Bft)
27.04.2016 10:15 0,5 C 5,4 C 82 % 1008,9 hPa 0,0 mm 4,2 km/h (1 Bft) SW 225 5 min -2,2 C 0,0 km/h (0 Bft)
27.04.2016 10:20 0,5 C 4,2 C 82 % 1008,9 hPa 0,0 mm 1,8 km/h (1 Bft) W 270 0 min -2,2 C 0,0 km/h (0 Bft)
27.04.2016 10:25 0,7 C 5,1 C 81 % 1008,9 hPa 0,0 mm 0,0 km/h (0 Bft) NW 315 0 min -2,2 C 0,0 km/h (0 Bft)
27.04.2016 10:30 1,0 C 6,6 C 81 % 1008,9 hPa 0,0 mm 0,0 km/h (0 Bft) SW 225 0 min -1,9 C 0,0 km/h (0 Bft)
27.04.2016 10:35 1,4 C 7,8 C 80 % 1009,8 hPa 0,7 mm 3,0 km/h (1 Bft) W-NW 292 0 min -1,7 C 34,0 km/h (5 Bft)
27.04.2016 10:40 1,5 C 6,9 C 79 % 1009,8 hPa 0,0 mm 8,3 km/h (2 Bft) W 270 0 min -1,7 C 15,2 km/h (3 Bft)
27.04.2016 10:45 1,6 C 7,7 C 78 % 1009,8 hPa 0,0 mm 12,5 km/h (3 Bft) W-SW 247 0 min -1,8 C 9,8 km/h (2 Bft)
27.04.2016 10:50 1,8 C 8,2 C 78 % 1009,8 hPa 0,0 mm 12,5 km/h (3 Bft) W-SW 247 0 min -1,6 C 43,2 km/h (6 Bft)
27.04.2016 10:55 2,1 C 9,3 C 76 % 1010,9 hPa 0,7 mm 15,5 km/h (3 Bft) W-NW 292 5 min -1,7 C 44,1 km/h (6 Bft)
27.04.2016 11:00 1,9 C 8,9 C 76 % 1010,9 hPa 0,0 mm 16,7 km/h (3 Bft) W 270 5 min -1,9 C 20,0 km/h (4 Bft)
27.04.2016 11:02 2,3 C 8,7 C 75 % 1010,9 hPa 0,0 mm 17,6 km/h (3 Bft) SW 225 0 min -1,7 C 24,1 km/h (4 Bft)
27.04.2016 11:05 2,3 C 8,3 C 75 % 1010,9 hPa 0,0 mm 17,6 km/h (3 Bft) SW 225 0 min -1,7 C 24,1 km/h (4 Bft)
27.04.2016 11:10 1,8 C 7,9 C 75 % 1010,9 hPa 0,0 mm 17,9 km/h (3 Bft) W-NW 292 5 min -2,1 C 12,8 km/h (3 Bft)
27.04.2016 11:15 2,1 C 7,0 C 74 % 1011,4 hPa 0,7 mm 18,5 km/h (3 Bft) W 270 0 min -2,0 C 14,6 km/h (3 Bft)
27.04.2016 11:20 2,1 C 7,1 C 74 % 1011,4 hPa 0,0 mm 17,0 km/h (3 Bft) W-NW 292 0 min -2,0 C 32,2 km/h (5 Bft)
27.04.2016 11:25 1,8 C 6,9 C 73 % 1011,4 hPa 0,0 mm 17,3 km/h (3 Bft) W 270 0 min -2,5 C 9,5 km/h (2 Bft)
27.04.2016 11:30 1,8 C 6,6 C 72 % 1011,4 hPa 0,0 mm 18,5 km/h (3 Bft) W-NW 292 0 min -2,7 C 34,6 km/h (5 Bft)
27.04.2016 11:35 2,1 C 6,7 C 72 % 1011,6 hPa 0,7 mm 16,4 km/h (3 Bft) W 270 0 min -2,4 C 15,2 km/h (3 Bft)
27.04.2016 11:40 2,2 C 7,1 C 72 % 1011,6 hPa 0,0 mm 15,2 km/h (3 Bft) W-NW 292 0 min -2,3 C 21,8 km/h (4 Bft)
27.04.2016 11:45 2,5 C 7,9 C 72 % 1011,6 hPa 0,0 mm 12,8 km/h (3 Bft) W-NW 292 0 min -2,0 C 20,9 km/h (4 Bft)
27.04.2016 11:50 2,4 C 8,0 C 71 % 1011,6 hPa 0,0 mm 14,9 km/h (3 Bft) W-NW 292 0 min -2,3 C 20,9 km/h (4 Bft)
27.04.2016 11:55 2,5 C 7,6 C 69 % 1011,9 hPa 0,7 mm 17,0 km/h (3 Bft) NW 315 0 min -2,6 C 45,6 km/h (6 Bft)
27.04.2016 12:00 2,4 C 7,1 C 69 % 1011,9 hPa 0,0 mm 17,0 km/h (3 Bft) NW 315 0 min -2,7 C 28,6 km/h (4 Bft)
27.04.2016 12:05 2,4 C 6,8 C 69 % 1011,9 hPa 0,0 mm 17,9 km/h (3 Bft) SW 225 0 min -2,7 C 12,5 km/h (3 Bft)
27.04.2016 12:10 2,7 C 6,9 C 69 % 1011,9 hPa 0,0 mm 14,0 km/h (3 Bft) SW 225 0 min -2,4 C 6,9 km/h (2 Bft)
27.04.2016 12:15 2,8 C 7,6 C 68 % 1012,3 hPa 0,7 mm 13,4 km/h (3 Bft) N-NW 337 0 min -2,5 C 24,4 km/h (4 Bft)
27.04.2016 12:20 2,9 C 7,7 C 68 % 1012,3 hPa 0,0 mm 14,9 km/h (3 Bft) N 360 0 min -2,4 C 48,6 km/h (6 Bft)
27.04.2016 12:25 2,9 C 6,9 C 67 % 1012,3 hPa 0,7 mm 19,1 km/h (3 Bft) W 270 0 min -2,6 C 24,4 km/h (4 Bft)
27.04.2016 12:30 3,1 C 6,6 C 66 % 1012,3 hPa 0,0 mm 18,8 km/h (3 Bft) SW 225 0 min -2,6 C 18,5 km/h (3 Bft)
27.04.2016 12:35 2,8 C 6,1 C 66 % 1012,5 hPa 0,7 mm 14,3 km/h (3 Bft) W 270 0 min -2,9 C 8,0 km/h (2 Bft)
27.04.2016 12:40 2,4 C 5,2 C 66 % 1012,5 hPa 0,7 mm 14,6 km/h (3 Bft) NW 315 0 min -3,3 C 14,6 km/h (3 Bft)
27.04.2016 12:45 2,9 C 5,2 C 65 % 1012,5 hPa 0,7 mm 17,3 km/h (3 Bft) W-SW 247 0 min -3,0 C 27,1 km/h (4 Bft)
27.04.2016 12:50 3,3 C 5,4 C 64 % 1012,5 hPa 0,7 mm 17,0 km/h (3 Bft) W-NW 292 0 min -2,8 C 23,5 km/h (4 Bft)
27.04.2016 12:55 3,6 C 5,6 C 64 % 1012,1 hPa 0,7 mm 14,6 km/h (3 Bft) W-SW 247 0 min -2,6 C 17,0 km/h (3 Bft)
27.04.2016 13:00 3,8 C 6,1 C 64 % 1012,1 hPa 0,7 mm 13,7 km/h (3 Bft) W 270 0 min -2,4 C 17,9 km/h (3 Bft)
27.04.2016 13:05 3,7 C 6,1 C 63 % 1012,1 hPa 0,7 mm 15,8 km/h (3 Bft) W 270 0 min -2,7 C 20,6 km/h (4 Bft)
27.04.2016 13:10 3,6 C 6,4 C 62 % 1012,1 hPa 0,0 mm 17,9 km/h (3 Bft) W-SW 247 0 min -3,0 C 21,8 km/h (4 Bft)
27.04.2016 13:15 3,8 C 6,6 C 63 % 1012,2 hPa 0,0 mm 17,6 km/h (3 Bft) W 270 0 min -2,6 C 31,6 km/h (5 Bft)
27.04.2016 13:20 3,5 C 6,3 C 62 % 1012,2 hPa 0,0 mm 17,0 km/h (3 Bft) W-NW 292 0 min -3,1 C 24,1 km/h (4 Bft)
27.04.2016 13:25 3,7 C 5,9 C 62 % 1012,2 hPa 0,0 mm 19,7 km/h (3 Bft) N 360 0 min -2,9 C 25,3 km/h (4 Bft)
27.04.2016 13:30 3,7 C 5,9 C 62 % 1012,2 hPa 0,0 mm 19,1 km/h (3 Bft) W-SW 247 0 min -2,9 C 31,6 km/h (5 Bft)
27.04.2016 13:35 3,5 C 6,2 C 62 % 1012,2 hPa 0,0 mm 17,3 km/h (3 Bft) NW 315 0 min -3,1 C 29,2 km/h (5 Bft)
27.04.2016 13:40 3,5 C 6,1 C 62 % 1012,2 hPa 0,0 mm 17,9 km/h (3 Bft) W 270 0 min -3,1 C 24,4 km/h (4 Bft)
27.04.2016 13:45 3,5 C 5,7 C 61 % 1012,2 hPa 0,0 mm 19,7 km/h (3 Bft) SW 225 0 min -3,3 C 24,1 km/h (4 Bft)
27.04.2016 13:50 3,7 C 5,8 C 62 % 1012,2 hPa 0,0 mm 17,6 km/h (3 Bft) SW 225 0 min -2,9 C 16,1 km/h (3 Bft)
27.04.2016 13:55 3,8 C 6,3 C 62 % 1012,2 hPa 0,0 mm 15,8 km/h (3 Bft) W-SW 247 0 min -2,8 C 18,8 km/h (3 Bft)
27.04.2016 14:00 3,9 C 6,0 C 62 % 1012,2 hPa 0,0 mm 17,3 km/h (3 Bft) S-SW 202 0 min -2,7 C 13,7 km/h (3 Bft)
27.04.2016 14:02 4,2 C 6,6 C 61 % 1012,2 hPa 0,0 mm 17,3 km/h (3 Bft) W 270 0 min -2,6 C 29,5 km/h (5 Bft)
27.04.2016 14:06 4,2 C 6,1 C 61 % 1012,2 hPa 0,0 mm 17,3 km/h (3 Bft) W 270 0 min -2,6 C 29,5 km/h (5 Bft)
27.04.2016 14:10 3,9 C 6,4 C 59 % 1012,2 hPa 0,0 mm 18,8 km/h (3 Bft) W-SW 247 0 min -3,4 C 32,5 km/h (5 Bft)
27.04.2016 14:15 3,6 C 5,7 C 59 % 1012,0 hPa 0,0 mm 18,5 km/h (3 Bft) NW 315 0 min -3,6 C 20,6 km/h (4 Bft)
27.04.2016 14:20 4,1 C 6,1 C 59 % 1012,0 hPa 0,0 mm 14,9 km/h (3 Bft) W 270 0 min -3,2 C 18,5 km/h (3 Bft)
27.04.2016 14:25 4,6 C 6,9 C 59 % 1012,0 hPa 0,0 mm 13,7 km/h (3 Bft) W 270 0 min -2,7 C 12,8 km/h (3 Bft)
27.04.2016 14:30 4,7 C 7,4 C 59 % 1012,0 hPa 0,0 mm 14,6 km/h (3 Bft) W-SW 247 0 min -2,6 C 28,3 km/h (4 Bft)
27.04.2016 14:35 4,8 C 7,2 C 58 % 1011,5 hPa 0,0 mm 18,8 km/h (3 Bft) W 270 0 min -2,7 C 34,3 km/h (5 Bft)
27.04.2016 14:40 4,6 C 6,6 C 57 % 1011,5 hPa 0,0 mm 22,4 km/h (4 Bft) NW 315 0 min -3,2 C 29,8 km/h (5 Bft)
27.04.2016 14:45 4,8 C 6,2 C 57 % 1011,5 hPa 0,0 mm 22,9 km/h (4 Bft) W-SW 247 0 min -3,0 C 19,7 km/h (3 Bft)
27.04.2016 14:50 5,1 C 6,8 C 57 % 1011,5 hPa 0,0 mm 20,3 km/h (4 Bft) W-NW 292 0 min -2,7 C 39,0 km/h (6 Bft)
27.04.2016 14:55 5,0 C 6,5 C 56 % 1011,5 hPa 0,0 mm 20,0 km/h (4 Bft) W 270 0 min -3,0 C 31,9 km/h (5 Bft)
27.04.2016 15:00 5,4 C 7,3 C 57 % 1011,5 hPa 0,0 mm 19,1 km/h (3 Bft) NW 315 0 min -2,4 C 23,5 km/h (4 Bft)
27.04.2016 15:05 5,6 C 7,8 C 56 % 1011,5 hPa 0,0 mm 15,5 km/h (3 Bft) W-SW 247 0 min -2,5 C 17,3 km/h (3 Bft)
27.04.2016 15:10 5,6 C 7,9 C 55 % 1011,5 hPa 0,0 mm 19,4 km/h (3 Bft) W-SW 247 0 min -2,7 C 38,4 km/h (5 Bft)
27.04.2016 15:15 5,7 C 7,8 C 55 % 1011,2 hPa 0,0 mm 18,8 km/h (3 Bft) NW 315 0 min -2,6 C 15,5 km/h (3 Bft)
27.04.2016 15:20 5,8 C 8,0 C 55 % 1011,2 hPa 0,0 mm 17,9 km/h (3 Bft) W 270 0 min -2,5 C 10,4 km/h (2 Bft)
27.04.2016 15:25 5,9 C 8,5 C 54 % 1011,2 hPa 0,0 mm 16,4 km/h (3 Bft) W 270 0 min -2,7 C 35,2 km/h (5 Bft)
27.04.2016 15:30 5,7 C 8,3 C 54 % 1011,2 hPa 0,0 mm 15,8 km/h (3 Bft) NW 315 0 min -2,9 C 15,8 km/h (3 Bft)
27.04.2016 15:35 5,8 C 7,9 C 54 % 1010,9 hPa 0,0 mm 20,3 km/h (4 Bft) W 270 0 min -2,8 C 31,3 km/h (5 Bft)
27.04.2016 15:40 5,6 C 7,4 C 53 % 1010,9 hPa 0,0 mm 22,4 km/h (4 Bft) W 270 0 min -3,2 C 27,1 km/h (4 Bft)
27.04.2016 15:45 5,6 C 7,1 C 53 % 1010,9 hPa 0,0 mm 22,1 km/h (4 Bft) W-NW 292 0 min -3,2 C 38,1 km/h (5 Bft)
27.04.2016 15:50 5,8 C 7,4 C 53 % 1010,9 hPa 0,0 mm 18,5 km/h (3 Bft) W-SW 247 0 min -3,0 C 23,8 km/h (4 Bft)
27.04.2016 15:55 5,6 C 7,1 C 53 % 1011,0 hPa 0,0 mm 19,4 km/h (3 Bft) W-SW 247 0 min -3,2 C 20,3 km/h (4 Bft)
27.04.2016 16:00 5,5 C 7,5 C 53 % 1011,0 hPa 0,0 mm 18,2 km/h (3 Bft) W-SW 247 0 min -3,3 C 12,5 km/h (3 Bft)
27.04.2016 16:05 4,6 C 6,1 C 53 % 1011,0 hPa 0,0 mm 15,8 km/h (3 Bft) N-NW 337 0 min -4,1 C 8,3 km/h (2 Bft)
27.04.2016 16:10 5,0 C 6,1 C 53 % 1011,0 hPa 0,0 mm 17,9 km/h (3 Bft) W-NW 292 0 min -3,8 C 20,0 km/h (4 Bft)
27.04.2016 16:15 5,4 C 7,1 C 55 % 1011,2 hPa 0,0 mm 19,1 km/h (3 Bft) W 270 0 min -2,9 C 27,1 km/h (4 Bft)
27.04.2016 16:20 5,1 C 7,7 C 56 % 1011,2 hPa 0,0 mm 17,3 km/h (3 Bft) W-NW 292 0 min -2,9 C 25,6 km/h (4 Bft)
27.04.2016 16:25 5,0 C 7,2 C 57 % 1011,2 hPa 0,0 mm 17,6 km/h (3 Bft) W 270 0 min -2,8 C 22,9 km/h (4 Bft)
27.04.2016 16:30 5,1 C 7,7 C 57 % 1011,2 hPa 0,0 mm 18,5 km/h (3 Bft) W 270 0 min -2,7 C 12,2 km/h (2 Bft)
27.04.2016 16:35 4,6 C 6,6 C 57 % 1011,2 hPa 0,0 mm 22,1 km/h (4 Bft) W 270 0 min -3,2 C 55,4 km/h (7 Bft)
27.04.2016 16:40 4,2 C 5,4 C 57 % 1011,2 hPa 0,0 mm 20,3 km/h (4 Bft) W-SW 247 0 min -3,5 C 21,5 km/h (4 Bft)
27.04.2016 16:45 4,3 C 5,2 C 57 % 1011,2 hPa 0,0 mm 17,6 km/h (3 Bft) W-SW 247 0 min -3,5 C 38,4 km/h (5 Bft)
27.04.2016 16:50 4,4 C 5,1 C 56 % 1011,2 hPa 0,0 mm 17,9 km/h (3 Bft) W-NW 292 0 min -3,6 C 31,3 km/h (5 Bft)
27.04.2016 16:55 4,5 C 5,0 C 56 % 1011,3 hPa 0,0 mm 18,5 km/h (3 Bft) W 270 0 min -3,5 C 31,3 km/h (5 Bft)
27.04.2016 17:00 4,4 C 4,6 C 56 % 1011,3 hPa 0,0 mm 20,3 km/h (4 Bft) SW 225 0 min -3,6 C 27,1 km/h (4 Bft)
27.04.2016 17:05 4,2 C 4,4 C 56 % 1011,3 hPa 0,0 mm 20,9 km/h (4 Bft) S 180 0 min -3,8 C 15,2 km/h (3 Bft)
27.04.2016 17:07 4,2 C 4,0 C 56 % 1011,3 hPa 0,0 mm 20,9 km/h (4 Bft) S 180 0 min -3,8 C 15,2 km/h (3 Bft)
27.04.2016 17:10 4,4 C 4,5 C 57 % 1011,3 hPa 0,0 mm 18,8 km/h (3 Bft) W 270 0 min -3,4 C 24,4 km/h (4 Bft)
27.04.2016 17:15 4,5 C 4,7 C 57 % 1011,1 hPa 0,0 mm 13,4 km/h (3 Bft) W 270 0 min -3,3 C 13,4 km/h (3 Bft)
27.04.2016 17:20 4,5 C 4,8 C 57 % 1011,1 hPa 0,0 mm 12,2 km/h (2 Bft) W 270 0 min -3,3 C 8,0 km/h (2 Bft)
27.04.2016 17:25 4,6 C 4,9 C 57 % 1011,1 hPa 0,0 mm 13,1 km/h (3 Bft) W 270 0 min -3,2 C 18,2 km/h (3 Bft)
27.04.2016 17:30 4,4 C 4,7 C 56 % 1011,1 hPa 0,0 mm 15,5 km/h (3 Bft) SW 225 0 min -3,6 C 14,9 km/h (3 Bft)
27.04.2016 17:35 4,5 C 4,5 C 57 % 1011,4 hPa 0,0 mm 16,1 km/h (3 Bft) W 270 0 min -3,3 C 16,4 km/h (3 Bft)
27.04.2016 17:40 4,4 C 4,1 C 57 % 1011,4 hPa 0,0 mm 14,3 km/h (3 Bft) NW 315 0 min -3,4 C 22,1 km/h (4 Bft)
27.04.2016 17:45 4,4 C 4,4 C 58 % 1011,4 hPa 0,0 mm 11,6 km/h (2 Bft) W 270 0 min -3,1 C 22,7 km/h (4 Bft)
27.04.2016 17:50 4,3 C 4,3 C 58 % 1011,4 hPa 0,0 mm 12,5 km/h (3 Bft) NW 315 0 min -3,2 C 6,6 km/h (2 Bft)
27.04.2016 17:55 4,4 C 4,4 C 57 % 1011,3 hPa 0,0 mm 14,6 km/h (3 Bft) SW 225 0 min -3,4 C 22,4 km/h (4 Bft)
27.04.2016 18:00 4,4 C 4,3 C 57 % 1011,3 hPa 0,0 mm 14,0 km/h (3 Bft) W-SW 247 0 min -3,4 C 14,0 km/h (3 Bft)
27.04.2016 18:05 4,3 C 4,5 C 57 % 1011,3 hPa 0,0 mm 15,5 km/h (3 Bft) W-SW 247 0 min -3,5 C 15,5 km/h (3 Bft)
27.04.2016 18:10 4,3 C 4,4 C 57 % 1011,3 hPa 0,0 mm 17,3 km/h (3 Bft) NW 315 0 min -3,5 C 21,5 km/h (4 Bft)
27.04.2016 18:15 4,1 C 4,1 C 57 % 1011,2 hPa 0,0 mm 20,6 km/h (4 Bft) W-NW 292 0 min -3,6 C 22,1 km/h (4 Bft)
27.04.2016 18:20 3,9 C 4,0 C 57 % 1011,2 hPa 0,0 mm 22,4 km/h (4 Bft) NW 315 0 min -3,8 C 19,7 km/h (3 Bft)
27.04.2016 18:25 3,8 C 3,7 C 57 % 1011,2 hPa 0,0 mm 23,5 km/h (4 Bft) W 270 0 min -3,9 C 45,0 km/h (6 Bft)
27.04.2016 18:30 3,7 C 3,5 C 57 % 1011,2 hPa 0,0 mm 22,9 km/h (4 Bft) W 270 0 min -4,0 C 20,3 km/h (4 Bft)
27.04.2016 18:35 3,2 C 3,0 C 57 % 1011,4 hPa 0,0 mm 20,6 km/h (4 Bft) W-NW 292 0 min -4,5 C 10,7 km/h (2 Bft)
27.04.2016 18:40 3,1 C 2,9 C 58 % 1011,4 hPa 0,0 mm 18,5 km/h (3 Bft) SO 135 0 min -4,3 C 10,1 km/h (2 Bft)
27.04.2016 18:45 3,1 C 2,9 C 59 % 1011,4 hPa 0,0 mm 16,1 km/h (3 Bft) SW 225 0 min -4,1 C 11,9 km/h (2 Bft)
27.04.2016 18:50 3,3 C 3,0 C 59 % 1011,4 hPa 0,0 mm 12,8 km/h (3 Bft) W-NW 292 0 min -3,9 C 25,0 km/h (4 Bft)
27.04.2016 18:55 3,5 C 3,2 C 59 % 1011,6 hPa 0,0 mm 12,5 km/h (3 Bft) S 180 0 min -3,7 C 16,7 km/h (3 Bft)
27.04.2016 19:00 3,4 C 3,1 C 59 % 1011,6 hPa 0,0 mm 13,4 km/h (3 Bft) W-SW 247 0 min -3,8 C 20,0 km/h (4 Bft)
27.04.2016 19:05 3,6 C 3,8 C 59 % 1011,6 hPa 0,0 mm 11,0 km/h (2 Bft) W-SW 247 0 min -3,6 C 13,1 km/h (3 Bft)
27.04.2016 19:10 3,6 C 4,5 C 59 % 1011,6 hPa 0,0 mm 9,8 km/h (2 Bft) W-SW 247 0 min -3,6 C 10,4 km/h (2 Bft)
27.04.2016 19:15 3,5 C 4,7 C 58 % 1011,6 hPa 0,0 mm 9,8 km/h (2 Bft) W 270 0 min -4,0 C 12,8 km/h (3 Bft)
27.04.2016 19:20 3,2 C 4,4 C 58 % 1011,6 hPa 0,0 mm 11,3 km/h (2 Bft) W-SW 247 0 min -4,3 C 22,7 km/h (4 Bft)
27.04.2016 19:25 3,2 C 4,6 C 58 % 1011,6 hPa 0,0 mm 11,3 km/h (2 Bft) SW 225 0 min -4,3 C 11,6 km/h (2 Bft)
27.04.2016 19:30 3,1 C 5,3 C 58 % 1011,6 hPa 0,0 mm 8,9 km/h (2 Bft) SW 225 5 min -4,3 C 11,3 km/h (2 Bft)
27.04.2016 19:35 3,0 C 6,2 C 58 % 1011,8 hPa 0,0 mm 6,0 km/h (2 Bft) W-SW 247 5 min -4,4 C 9,2 km/h (2 Bft)
27.04.2016 19:40 2,8 C 6,1 C 58 % 1011,8 hPa 0,0 mm 5,1 km/h (1 Bft) N-NW 337 5 min -4,6 C 6,3 km/h (2 Bft)
27.04.2016 19:45 2,5 C 6,1 C 59 % 1011,8 hPa 0,0 mm 3,9 km/h (1 Bft) S-SW 202 5 min -4,7 C 0,0 km/h (0 Bft)
27.04.2016 19:50 2,4 C 5,9 C 59 % 1011,8 hPa 0,0 mm 4,2 km/h (1 Bft) S 180 5 min -4,8 C 3,9 km/h (1 Bft)
27.04.2016 19:55 2,2 C 5,2 C 59 % 1012,0 hPa 0,0 mm 6,0 km/h (2 Bft) SW 225 5 min -5,0 C 14,9 km/h (3 Bft)
27.04.2016 20:00 2,1 C 4,8 C 59 % 1012,0 hPa 0,0 mm 5,4 km/h (1 Bft) W 270 5 min -5,1 C 3,3 km/h (1 Bft)
27.04.2016 20:05 1,7 C 4,3 C 59 % 1012,0 hPa 0,0 mm 3,0 km/h (1 Bft) O-SO 112 5 min -5,4 C 0,0 km/h (0 Bft)
27.04.2016 20:07 1,6 C 3,8 C 59 % 1012,0 hPa 0,0 mm 1,2 km/h (1 Bft) O 90 2 min -5,5 C 0,0 km/h (0 Bft)
27.04.2016 20:08 1,6 C 3,8 C 59 % 1012,0 hPa 0,0 mm 1,2 km/h (1 Bft) O 90 1 min -5,5 C 0,0 km/h (0 Bft)
27.04.2016 20:10 1,6 C 3,8 C 59 % 1012,0 hPa 0,0 mm 1,2 km/h (1 Bft) O 90 2 min -5,5 C 0,0 km/h (0 Bft)
27.04.2016 20:15 1,2 C 2,8 C 61 % 1012,1 hPa 0,0 mm 1,2 km/h (1 Bft) W-SW 247 0 min -5,5 C 3,0 km/h (1 Bft)
27.04.2016 20:20 1,2 C 2,1 C 63 % 1012,1 hPa 0,0 mm 2,1 km/h (1 Bft) S-SO 157 0 min -5,0 C 3,0 km/h (1 Bft)
27.04.2016 20:25 0,8 C 0,8 C 63 % 1012,1 hPa 0,0 mm 1,2 km/h (1 Bft) O-SO 112 0 min -5,4 C 0,0 km/h (0 Bft)
27.04.2016 20:30 0,5 C 0,3 C 63 % 1012,1 hPa 0,0 mm 0,3 km/h (0 Bft) SW 225 0 min -5,7 C 3,6 km/h (1 Bft)
27.04.2016 20:35 0,3 C -0,1 C 64 % 1012,2 hPa 0,0 mm 0,3 km/h (0 Bft) SO 135 0 min -5,7 C 0,0 km/h (0 Bft)
27.04.2016 20:40 0,2 C -0,3 C 65 % 1012,2 hPa 0,0 mm 1,2 km/h (1 Bft) S 180 0 min -5,6 C 0,0 km/h (0 Bft)
27.04.2016 20:45 0,2 C -0,3 C 65 % 1012,2 hPa 0,0 mm 3,6 km/h (1 Bft) W-NW 292 0 min -5,6 C 7,5 km/h (2 Bft)
27.04.2016 20:50 0,2 C -0,4 C 65 % 1012,2 hPa 0,0 mm 3,3 km/h (1 Bft) O-NO 67 0 min -5,6 C 3,3 km/h (1 Bft)
27.04.2016 20:55 0,0 C -0,6 C 65 % 1012,4 hPa 0,0 mm 2,4 km/h (1 Bft) SO 135 0 min -5,8 C 5,1 km/h (1 Bft)
27.04.2016 21:00 -0,1 C -0,7 C 66 % 1012,4 hPa 0,0 mm 1,5 km/h (1 Bft) O-SO 112 0 min -5,7 C 0,0 km/h (0 Bft)
27.04.2016 21:05 -0,4 C -1,0 C 67 % 1012,4 hPa 0,0 mm 0,6 km/h (0 Bft) O-SO 112 0 min -5,8 C 0,0 km/h (0 Bft)
27.04.2016 21:10 -0,8 C -1,3 C 66 % 1012,4 hPa 0,0 mm 0,3 km/h (0 Bft) W-SW 247 0 min -6,3 C 4,8 km/h (1 Bft)
27.04.2016 21:15 -0,6 C -1,3 C 67 % 1012,3 hPa 0,0 mm 0,9 km/h (0 Bft) S 180 0 min -6,0 C 4,2 km/h (1 Bft)
27.04.2016 21:20 -0,3 C -1,0 C 67 % 1012,3 hPa 0,0 mm 3,3 km/h (1 Bft) SW 225 0 min -5,7 C 9,5 km/h (2 Bft)
27.04.2016 21:25 -0,2 C -1,1 C 67 % 1012,3 hPa 0,0 mm 6,3 km/h (2 Bft) S 180 0 min -5,6 C 5,1 km/h (1 Bft)
27.04.2016 21:30 -0,3 C -1,2 C 67 % 1012,3 hPa 0,0 mm 6,9 km/h (2 Bft) W-SW 247 0 min -5,7 C 13,4 km/h (3 Bft)
27.04.2016 21:35 -0,6 C -1,2 C 68 % 1012,6 hPa 0,0 mm 5,4 km/h (1 Bft) O-SO 112 0 min -5,8 C 3,6 km/h (1 Bft)
27.04.2016 21:40 -0,6 C -1,2 C 68 % 1012,6 hPa 0,0 mm 5,1 km/h (1 Bft) S 180 0 min -5,8 C 4,8 km/h (1 Bft)
27.04.2016 21:45 -0,7 C -1,2 C 69 % 1012,6 hPa 0,0 mm 2,4 km/h (1 Bft) SW 225 0 min -5,7 C 4,8 km/h (1 Bft)
27.04.2016 21:50 -0,8 C -1,3 C 69 % 1012,6 hPa 0,0 mm 0,9 km/h (0 Bft) S 180 0 min -5,8 C 0,0 km/h (0 Bft)
27.04.2016 21:55 -1,0 C -1,5 C 70 % 1012,5 hPa 0,0 mm 1,2 km/h (1 Bft) S 180 0 min -5,8 C 0,0 km/h (0 Bft)
27.04.2016 22:00 -0,8 C -1,4 C 71 % 1012,5 hPa 0,0 mm 2,4 km/h (1 Bft) S 180 0 min -5,4 C 3,6 km/h (1 Bft)
27.04.2016 22:05 -0,9 C -1,5 C 71 % 1012,5 hPa 0,0 mm 2,4 km/h (1 Bft) SW 225 0 min -5,5 C 0,0 km/h (0 Bft)
27.04.2016 22:10 -1,0 C -1,6 C 71 % 1012,5 hPa 0,0 mm 1,5 km/h (1 Bft) SO 135 0 min -5,6 C 0,0 km/h (0 Bft)
27.04.2016 22:15 -1,0 C -1,7 C 72 % 1012,6 hPa 0,0 mm 0,0 km/h (0 Bft) SO 135 0 min -5,4 C 0,0 km/h (0 Bft)
27.04.2016 22:20 -1,2 C -1,9 C 73 % 1012,6 hPa 0,0 mm 0,0 km/h (0 Bft) SO 135 0 min -5,4 C 0,0 km/h (0 Bft)
27.04.2016 22:25 -1,2 C -1,9 C 73 % 1012,6 hPa 0,0 mm 0,0 km/h (0 Bft) SO 135 0 min -5,4 C 0,0 km/h (0 Bft)
27.04.2016 22:30 -1,4 C -2,1 C 74 % 1012,6 hPa 0,0 mm 0,0 km/h (0 Bft) SO 135 0 min -5,4 C 0,0 km/h (0 Bft)
27.04.2016 22:35 -1,5 C -2,2 C 74 % 1012,8 hPa 0,0 mm 0,0 km/h (0 Bft) W-NW 292 0 min -5,5 C 0,0 km/h (0 Bft)
27.04.2016 22:40 -1,8 C -2,4 C 73 % 1012,8 hPa 0,0 mm 0,6 km/h (0 Bft) W-SW 247 0 min -6,0 C 8,0 km/h (2 Bft)
27.04.2016 22:45 -1,5 C -2,2 C 73 % 1012,8 hPa 0,0 mm 3,9 km/h (1 Bft) SW 225 0 min -5,7 C 9,5 km/h (2 Bft)
27.04.2016 22:50 -1,4 C -2,1 C 74 % 1012,8 hPa 0,0 mm 4,5 km/h (1 Bft) SO 135 0 min -5,4 C 0,0 km/h (0 Bft)
27.04.2016 22:55 -1,8 C -2,4 C 73 % 1013,0 hPa 0,0 mm 1,2 km/h (1 Bft) W-SW 247 0 min -6,0 C 4,2 km/h (1 Bft)
27.04.2016 23:00 -1,6 C -2,2 C 74 % 1013,0 hPa 0,0 mm 3,0 km/h (1 Bft) SO 135 0 min -5,6 C 0,0 km/h (0 Bft)
27.04.2016 23:05 -1,8 C -2,4 C 74 % 1013,0 hPa 0,0 mm 3,3 km/h (1 Bft) O 90 0 min -5,8 C 0,0 km/h (0 Bft)
27.04.2016 23:07 -1,8 C -2,4 C 74 % 1013,0 hPa 0,0 mm 0,9 km/h (0 Bft) SO 135 0 min -5,8 C 3,6 km/h (1 Bft)
27.04.2016 23:09 -1,8 C -2,4 C 74 % 1013,0 hPa 0,0 mm 0,9 km/h (0 Bft) SO 135 0 min -5,8 C 3,6 km/h (1 Bft)
27.04.2016 23:10 -1,8 C -2,4 C 74 % 1013,0 hPa 0,0 mm 0,9 km/h (0 Bft) SO 135 0 min -5,8 C 3,6 km/h (1 Bft)
27.04.2016 23:15 -1,8 C -2,5 C 75 % 1012,9 hPa 0,0 mm 0,6 km/h (0 Bft) SW 225 0 min -5,6 C 0,0 km/h (0 Bft)
27.04.2016 23:20 -2,0 C -2,7 C 75 % 1012,9 hPa 0,0 mm 0,6 km/h (0 Bft) NO 45 0 min -5,8 C 0,0 km/h (0 Bft)
27.04.2016 23:25 -2,0 C -2,7 C 76 % 1012,9 hPa 0,0 mm 0,0 km/h (0 Bft) O-SO 112 0 min -5,6 C 0,0 km/h (0 Bft)
27.04.2016 23:30 -1,9 C -2,7 C 76 % 1012,9 hPa 0,0 mm 0,0 km/h (0 Bft) O 90 0 min -5,6 C 0,0 km/h (0 Bft)
27.04.2016 23:35 -2,0 C -2,8 C 76 % 1012,7 hPa 0,0 mm 0,0 km/h (0 Bft) O-SO 112 0 min -5,6 C 0,0 km/h (0 Bft)
27.04.2016 23:40 -2,2 C -2,9 C 76 % 1012,7 hPa 0,0 mm 0,0 km/h (0 Bft) O-SO 112 0 min -5,8 C 0,0 km/h (0 Bft)
27.04.2016 23:45 -2,3 C -3,1 C 76 % 1012,7 hPa 0,0 mm 0,3 km/h (0 Bft) S 180 0 min -5,9 C 0,0 km/h (0 Bft)
27.04.2016 23:50 -2,3 C -3,1 C 76 % 1012,7 hPa 0,0 mm 0,3 km/h (0 Bft) O 90 0 min -5,9 C 0,0 km/h (0 Bft)
27.04.2016 23:55 -2,6 C -3,3 C 76 % 1012,8 hPa 0,0 mm 0,0 km/h (0 Bft) N 360 0 min -6,2 C 0,0 km/h (0 Bft)
_ Min-Zeit 23:55 23:55 16:10 00:10 - 23:55 - - - 21:10 23:55
Minimum _ -2,6 C -3,3 C 53 % 1003,9 hPa - 0,0 km/h (0 Bft) - - - -6,3 C 0,0 km/h (0 Bft)
_ Max-Zeit 15:25 10:55 04:05 23:10 12:35 18:25 - - 20:05 10:50 16:35
Maximum _ 5,9 C 9,3 C 90 % 1013,0 hPa 0,7 mm 23,5 km/h
W (4 Bft)
- - 5 min -1,6 C 55,4 km/h
W (7 Bft)
Durchschnitt _ 1,0 C 2,1 C 73 % 1009,5 hPa #9,6 mm 7,5 km/h (2 Bft) W - #1:05 h -3,4 C 10,4 km/h (2 Bft)